Time;durP1;ratioP1;P1;durP2;ratioP2;P2;SDS_P1;SDS_P2;PMS_P1;PMS_P2;Temp;Humidity;BMP_temperature;BMP_pressure;BME280_temperature;BME280_humidity;BME280_pressure;Samples;Min_cycle;Max_cycle;Signal;HPM_P1;HPM_P2
2022/06/26 00:00:41;;;;;;;5.00;1.00;;;20.20;99.90;;;;;;5021535;28;20711;-50
2022/06/26 00:03:08;;;;;;;1.33;1.00;;;20.20;99.90;;;;;;5030644;28;20229;-50
2022/06/26 00:05:37;;;;;;;1.07;1.07;;;20.20;99.90;;;;;;5026227;28;20203;-50
2022/06/26 00:08:04;;;;;;;0.63;0.63;;;20.20;99.90;;;;;;5013916;28;20219;-50
2022/06/26 00:10:31;;;;;;;0.70;0.70;;;20.10;99.90;;;;;;5025074;28;20249;-50
2022/06/26 00:12:58;;;;;;;1.23;1.10;;;20.10;99.90;;;;;;5025691;28;20642;-50
2022/06/26 00:15:25;;;;;;;0.80;0.80;;;20.10;99.90;;;;;;5027311;28;20198;-50
2022/06/26 00:17:52;;;;;;;1.00;1.00;;;20.00;99.90;;;;;;5023088;28;20203;-50
2022/06/26 00:20:21;;;;;;;0.83;0.83;;;20.00;99.90;;;;;;5026313;28;20239;-50
2022/06/26 00:22:49;;;;;;;1.83;1.10;;;20.00;99.90;;;;;;5031278;28;20222;-50
2022/06/26 00:25:16;;;;;;;1.43;1.43;;;19.90;99.90;;;;;;5028677;28;20662;-50
2022/06/26 00:27:45;;;;;;;0.80;0.80;;;19.90;99.90;;;;;;5030414;28;20284;-50
2022/06/26 00:30:13;;;;;;;1.37;1.30;;;19.90;99.90;;;;;;5032061;28;20214;-50
2022/06/26 00:32:41;;;;;;;0.90;0.90;;;19.90;99.90;;;;;;5016229;28;20222;-50
2022/06/26 00:35:09;;;;;;;1.40;1.30;;;19.90;99.90;;;;;;5021128;28;20286;-50
2022/06/26 00:37:36;;;;;;;1.83;1.53;;;19.90;99.90;;;;;;5017127;28;20199;-50
2022/06/26 00:40:09;;;;;;;1.37;1.37;;;19.80;99.90;;;;;;5032061;28;20217;-50
2022/06/26 00:42:36;;;;;;;1.37;1.30;;;19.80;99.90;;;;;;5030533;28;20237;-50
2022/06/26 00:45:04;;;;;;;1.33;1.33;;;19.80;99.90;;;;;;5029834;28;20612;-50
2022/06/26 00:47:31;;;;;;;1.73;1.50;;;20.00;99.90;;;;;;5022945;28;20711;-50
2022/06/26 00:49:58;;;;;;;1.40;1.30;;;20.10;99.90;;;;;;5014266;28;20681;-49
2022/06/26 00:52:26;;;;;;;2.13;0.90;;;20.00;99.90;;;;;;5012469;28;20281;-49
2022/06/26 00:54:53;;;;;;;1.43;1.37;;;20.00;99.90;;;;;;5020108;28;20206;-50
2022/06/26 00:57:22;;;;;;;0.83;0.83;;;20.00;99.90;;;;;;5023291;28;20202;-50
2022/06/26 00:59:49;;;;;;;2.10;1.27;;;20.10;99.90;;;;;;5028265;28;20202;-50
2022/06/26 01:04:43;;;;;;;1.20;1.10;;;20.10;99.90;;;;;;5051067;23;20233;-55
2022/06/26 01:07:11;;;;;;;0.90;0.90;;;20.30;99.90;;;;;;5030880;28;20202;-56
2022/06/26 01:09:38;;;;;;;1.53;0.70;;;20.30;99.90;;;;;;5031839;28;20194;-56
2022/06/26 01:12:06;;;;;;;1.03;0.80;;;20.50;99.90;;;;;;5026923;28;20661;-55
2022/06/26 01:14:35;;;;;;;0.53;0.53;;;20.40;99.90;;;;;;5031324;28;20221;-55
2022/06/26 01:17:02;;;;;;;1.30;0.60;;;20.60;99.90;;;;;;5012909;28;20565;-55
2022/06/26 01:19:30;;;;;;;1.73;0.50;;;20.60;99.90;;;;;;5014818;28;20284;-55
2022/06/26 01:21:57;;;;;;;1.00;1.00;;;20.60;99.90;;;;;;5030716;28;20232;-56
2022/06/26 01:24:25;;;;;;;0.80;0.80;;;20.50;99.90;;;;;;5030545;28;20708;-55
2022/06/26 01:26:52;;;;;;;1.00;0.83;;;20.50;99.90;;;;;;5025715;28;20199;-55
2022/06/26 01:29:19;;;;;;;0.50;0.50;;;20.50;99.90;;;;;;5019795;28;20223;-56
2022/06/26 01:31:46;;;;;;;0.70;0.50;;;20.50;99.90;;;;;;5010804;28;20203;-55
2022/06/26 01:34:14;;;;;;;0.53;0.40;;;20.70;99.90;;;;;;5023823;28;20230;-55
2022/06/26 01:36:41;;;;;;;0.97;0.50;;;20.70;99.90;;;;;;5025851;28;20207;-55
2022/06/26 01:39:08;;;;;;;1.33;0.60;;;20.70;99.90;;;;;;5019705;28;20195;-56
2022/06/26 01:41:36;;;;;;;1.03;0.80;;;20.70;99.90;;;;;;5023867;28;20206;-55
2022/06/26 01:44:07;;;;;;;1.53;0.70;;;20.70;99.90;;;;;;5030944;28;20214;-55
2022/06/26 01:46:35;;;;;;;2.97;1.20;;;20.60;99.90;;;;;;5031448;28;20290;-55
2022/06/26 01:49:02;;;;;;;1.67;1.57;;;20.50;99.90;;;;;;5027930;28;20218;-55
2022/06/26 01:51:29;;;;;;;1.40;1.40;;;20.40;99.90;;;;;;5026797;28;20305;-56
2022/06/26 01:53:56;;;;;;;1.50;0.87;;;20.30;99.90;;;;;;5022631;28;20314;-56
2022/06/26 01:56:23;;;;;;;1.20;0.87;;;20.20;99.90;;;;;;5024509;28;20199;-56
2022/06/26 01:58:51;;;;;;;0.90;0.90;;;20.10;99.90;;;;;;5019044;28;20229;-55
2022/06/26 02:01:19;;;;;;;0.80;0.80;;;20.00;99.90;;;;;;5015616;28;20210;-56
2022/06/26 02:03:46;;;;;;;0.80;0.80;;;20.00;99.90;;;;;;5022201;28;20230;-55
2022/06/26 02:06:13;;;;;;;2.83;1.07;;;20.00;99.90;;;;;;5023196;28;20202;-55
2022/06/26 02:08:40;;;;;;;1.47;1.37;;;20.00;99.90;;;;;;5030793;28;20245;-55
2022/06/26 02:13:54;;;;;;;0.63;0.63;;;20.00;99.90;;;;;;5020891;28;20225;-55
2022/06/26 02:16:24;;;;;;;0.70;0.70;;;20.00;99.90;;;;;;5012056;28;20207;-55
2022/06/26 02:18:52;;;;;;;0.70;0.70;;;20.00;99.90;;;;;;5028371;28;20198;-55
2022/06/26 02:21:22;;;;;;;1.00;1.00;;;20.00;99.90;;;;;;5030239;28;20260;-55
2022/06/26 02:23:51;;;;;;;0.97;0.73;;;20.00;99.90;;;;;;5030701;28;20229;-56
2022/06/26 02:26:19;;;;;;;0.90;0.90;;;20.00;99.90;;;;;;5027440;28;20206;-56
2022/06/26 02:28:47;;;;;;;1.40;0.60;;;19.90;99.90;;;;;;5025551;28;20222;-56
2022/06/26 02:31:16;;;;;;;1.50;0.53;;;19.90;99.90;;;;;;5018901;28;20218;-55
2022/06/26 02:33:43;;;;;;;0.77;0.77;;;19.80;99.90;;;;;;5027954;28;20692;-55
2022/06/26 02:36:10;;;;;;;1.80;0.60;;;19.80;99.90;;;;;;5019013;28;20229;-55
2022/06/26 02:38:38;;;;;;;1.90;0.47;;;19.70;99.90;;;;;;5018454;28;20254;-55
2022/06/26 02:41:06;;;;;;;0.67;0.67;;;19.70;99.90;;;;;;5024233;28;20615;-55
2022/06/26 02:43:33;;;;;;;1.33;0.53;;;19.70;99.90;;;;;;5015151;28;20747;-55
2022/06/26 02:46:00;;;;;;;0.60;0.60;;;19.70;99.90;;;;;;5020101;28;20211;-55
2022/06/26 02:48:28;;;;;;;0.50;0.50;;;19.70;99.90;;;;;;5023218;28;20246;-55
2022/06/26 02:50:55;;;;;;;0.50;0.50;;;19.60;99.90;;;;;;5022200;28;20206;-55
2022/06/26 02:53:23;;;;;;;0.60;0.60;;;19.60;99.90;;;;;;5029965;28;20300;-55
2022/06/26 02:55:50;;;;;;;0.60;0.60;;;19.60;99.90;;;;;;5022199;28;20206;-55
2022/06/26 02:58:17;;;;;;;0.93;0.87;;;19.60;99.90;;;;;;5010813;28;20206;-55
2022/06/26 03:00:44;;;;;;;0.47;0.47;;;19.50;99.90;;;;;;5027847;28;20262;-55
2022/06/26 03:03:11;;;;;;;0.40;0.40;;;19.50;99.90;;;;;;5021068;28;20612;-56
2022/06/26 03:05:40;;;;;;;0.50;0.50;;;19.30;99.90;;;;;;5025795;28;20230;-55
2022/06/26 03:08:07;;;;;;;0.47;0.47;;;19.30;99.90;;;;;;5022426;28;20697;-55
2022/06/26 03:10:34;;;;;;;0.43;0.43;;;19.20;99.90;;;;;;5014100;28;20207;-55
2022/06/26 03:13:01;;;;;;;2.77;0.60;;;19.10;99.90;;;;;;5020486;28;20274;-55
2022/06/26 03:15:28;;;;;;;0.40;0.40;;;19.10;99.90;;;;;;5028968;28;20236;-55
2022/06/26 03:17:55;;;;;;;0.50;0.50;;;19.10;99.90;;;;;;5032004;28;20656;-55
2022/06/26 03:20:22;;;;;;;0.97;0.80;;;19.00;99.90;;;;;;5017043;28;20297;-55
2022/06/26 03:22:51;;;;;;;0.70;0.70;;;19.00;99.90;;;;;;5014549;28;20238;-55
2022/06/26 03:25:18;;;;;;;0.50;0.50;;;19.00;99.90;;;;;;5026051;28;20203;-55
2022/06/26 03:27:45;;;;;;;0.80;0.80;;;19.00;99.90;;;;;;5025919;28;20206;-55
2022/06/26 03:30:13;;;;;;;0.80;0.80;;;18.90;99.90;;;;;;5023909;28;20274;-55
2022/06/26 03:32:40;;;;;;;1.60;1.50;;;18.90;99.90;;;;;;5026765;28;20241;-55
2022/06/26 03:35:08;;;;;;;0.83;0.83;;;18.90;99.90;;;;;;5022576;28;20198;-55
2022/06/26 03:37:35;;;;;;;1.43;0.70;;;18.90;99.90;;;;;;5030641;28;20194;-55
2022/06/26 03:40:05;;;;;;;1.07;1.00;;;18.90;99.90;;;;;;5020521;28;20191;-55
2022/06/26 03:42:32;;;;;;;0.80;0.80;;;18.90;99.90;;;;;;5023686;28;20202;-55
2022/06/26 03:44:59;;;;;;;0.87;0.77;;;18.80;99.90;;;;;;5025304;28;20286;-55
2022/06/26 03:47:26;;;;;;;1.60;0.90;;;18.80;99.90;;;;;;5030878;28;20198;-55
2022/06/26 03:49:54;;;;;;;0.80;0.80;;;18.80;99.90;;;;;;5031373;28;20219;-55
2022/06/26 03:52:22;;;;;;;0.80;0.80;;;18.80;99.90;;;;;;5026962;28;20207;-55
2022/06/26 03:54:49;;;;;;;0.73;0.73;;;18.80;99.90;;;;;;5016538;28;20646;-55
2022/06/26 03:57:18;;;;;;;0.90;0.90;;;18.80;99.90;;;;;;5022784;28;20607;-55
2022/06/26 03:59:45;;;;;;;0.90;0.90;;;18.80;99.90;;;;;;5015276;28;20594;-55
2022/06/26 04:02:12;;;;;;;0.83;0.83;;;18.70;99.90;;;;;;5020126;28;20553;-55
2022/06/26 04:04:40;;;;;;;1.00;1.00;;;18.80;99.90;;;;;;5028541;28;20250;-55
2022/06/26 04:07:07;;;;;;;0.87;0.87;;;18.70;99.90;;;;;;5026133;28;20210;-55
2022/06/26 04:09:34;;;;;;;2.20;0.80;;;18.60;99.90;;;;;;5024538;28;20268;-55
2022/06/26 04:12:01;;;;;;;1.83;1.20;;;18.50;99.90;;;;;;5016485;28;20214;-55
2022/06/26 04:14:30;;;;;;;1.30;1.20;;;18.40;99.90;;;;;;5025362;28;20309;-55
2022/06/26 04:16:57;;;;;;;1.97;1.50;;;18.40;99.90;;;;;;5022204;28;20653;-55
2022/06/26 04:19:24;;;;;;;1.67;1.57;;;18.40;99.90;;;;;;5022766;28;20564;-55
2022/06/26 04:21:51;;;;;;;1.40;1.30;;;18.40;99.90;;;;;;5025027;28;20666;-55
2022/06/26 04:24:18;;;;;;;12.10;1.27;;;18.50;99.90;;;;;;5023110;28;20242;-55
2022/06/26 04:26:45;;;;;;;1.60;1.40;;;18.50;99.90;;;;;;5024109;28;20697;-55
2022/06/26 04:29:12;;;;;;;3.70;1.50;;;18.50;99.90;;;;;;5014944;28;20223;-55
2022/06/26 04:31:40;;;;;;;1.63;1.60;;;18.50;99.90;;;;;;5025668;28;20219;-55
2022/06/26 04:34:07;;;;;;;2.03;1.93;;;18.50;99.90;;;;;;5020759;28;20224;-55
2022/06/26 04:36:34;;;;;;;1.00;1.00;;;18.60;99.90;;;;;;5022341;28;20580;-55
2022/06/26 04:39:01;;;;;;;1.40;1.30;;;18.70;99.90;;;;;;5018112;28;20598;-55
2022/06/26 04:41:39;;;;;;;3.07;1.43;;;18.80;99.90;;;;;;5026873;28;20218;-55
2022/06/26 04:44:07;;;;;;;2.63;1.53;;;18.90;99.90;;;;;;5023584;28;20653;-55
2022/06/26 04:46:35;;;;;;;3.03;1.63;;;18.90;99.90;;;;;;5017613;28;20250;-55
2022/06/26 04:49:04;;;;;;;1.23;1.23;;;18.90;99.90;;;;;;5026862;28;20215;-55
2022/06/26 04:51:34;;;;;;;1.73;1.40;;;19.00;99.90;;;;;;5027183;28;20207;-55
2022/06/26 04:54:01;;;;;;;1.13;1.10;;;19.10;99.90;;;;;;5018324;28;20219;-55
2022/06/26 04:56:28;;;;;;;1.97;1.20;;;19.30;99.90;;;;;;5030666;28;20564;-55
2022/06/26 04:58:56;;;;;;;1.30;1.20;;;19.30;99.90;;;;;;5030746;28;20199;-55
2022/06/26 05:01:23;;;;;;;2.83;1.10;;;19.40;99.90;;;;;;5019955;28;20581;-55
2022/06/26 05:03:51;;;;;;;0.83;0.83;;;19.60;99.90;;;;;;5017596;28;20227;-55
2022/06/26 05:06:19;;;;;;;3.30;1.10;;;19.80;99.90;;;;;;5027826;28;20565;-55
2022/06/26 05:08:46;;;;;;;1.00;1.00;;;20.00;99.90;;;;;;5026658;28;20210;-55
2022/06/26 05:11:14;;;;;;;1.93;1.00;;;20.30;99.90;;;;;;5028415;28;20268;-55
2022/06/26 05:13:41;;;;;;;0.93;0.90;;;20.70;99.90;;;;;;5021180;28;20365;-56
2022/06/26 05:16:08;;;;;;;1.13;1.03;;;21.20;99.90;;;;;;5026989;28;20340;-56
2022/06/26 05:18:35;;;;;;;1.00;0.90;;;22.00;99.90;;;;;;5018839;28;20245;-56
2022/06/26 05:21:02;;;;;;;0.90;0.90;;;22.60;99.90;;;;;;5010955;28;20191;-55
2022/06/26 05:23:31;;;;;;;0.70;0.70;;;23.30;99.90;;;;;;5022236;28;20227;-56
2022/06/26 05:25:58;;;;;;;2.23;1.10;;;23.70;99.90;;;;;;5023553;28;20238;-56
2022/06/26 05:28:25;;;;;;;0.93;0.70;;;23.90;99.90;;;;;;5016950;28;20195;-56
2022/06/26 05:30:52;;;;;;;1.83;0.70;;;24.10;99.90;;;;;;5018304;28;20257;-56
2022/06/26 05:33:19;;;;;;;0.60;0.60;;;24.50;99.90;;;;;;5019116;28;20231;-56
2022/06/26 05:35:46;;;;;;;0.87;0.87;;;24.60;99.90;;;;;;5023395;28;20214;-56
2022/06/26 05:38:13;;;;;;;0.90;0.90;;;25.20;99.90;;;;;;5022567;28;20203;-56
2022/06/26 05:40:42;;;;;;;0.80;0.70;;;25.50;99.90;;;;;;5010983;28;20199;-56
2022/06/26 05:43:09;;;;;;;0.60;0.60;;;25.70;99.90;;;;;;5022583;28;20219;-55
2022/06/26 05:45:36;;;;;;;0.67;0.67;;;25.60;99.90;;;;;;5017593;28;20261;-56
2022/06/26 05:48:03;;;;;;;1.20;1.10;;;26.00;99.90;;;;;;5021373;28;20195;-56
2022/06/26 05:50:30;;;;;;;0.50;0.50;;;26.30;99.90;;;;;;5024582;28;20655;-56
2022/06/26 05:52:58;;;;;;;2.30;0.73;;;26.60;99.90;;;;;;5021162;28;20222;-56
2022/06/26 05:55:25;;;;;;;1.47;0.87;;;26.80;99.90;;;;;;5024869;28;20688;-56
2022/06/26 05:57:53;;;;;;;1.50;0.60;;;27.10;99.90;;;;;;5029942;28;20261;-56
2022/06/26 06:00:20;;;;;;;1.80;0.90;;;27.20;99.90;;;;;;5019127;28;20198;-56
2022/06/26 06:02:48;;;;;;;0.75;0.70;;;27.60;99.90;;;;;;5019845;28;20233;-56
2022/06/26 06:05:15;;;;;;;1.42;0.70;;;27.90;99.90;;;;;;5016622;28;20210;-56
2022/06/26 06:07:42;;;;;;;1.85;0.80;;;28.20;99.90;;;;;;5016316;28;20257;-56
2022/06/26 06:10:11;;;;;;;0.93;0.50;;;28.10;99.90;;;;;;5024964;28;20241;-56
2022/06/26 06:12:38;;;;;;;0.75;0.75;;;28.30;99.90;;;;;;5021934;28;20214;-56
2022/06/26 06:15:08;;;;;;;1.75;0.60;;;28.40;99.90;;;;;;5020181;28;20199;-56
2022/06/26 06:17:40;;;;;;;1.38;1.15;;;28.00;99.90;;;;;;5022545;28;20620;-56
2022/06/26 06:20:11;;;;;;;2.30;1.20;;;28.50;99.90;;;;;;5021883;28;20218;-56
2022/06/26 06:22:38;;;;;;;1.48;0.70;;;28.30;99.90;;;;;;5025759;28;20241;-56
2022/06/26 06:25:06;;;;;;;0.85;0.70;;;28.70;99.90;;;;;;5019047;28;20198;-56
2022/06/26 06:27:33;;;;;;;0.82;0.70;;;28.60;99.90;;;;;;5025842;28;20870;-56
2022/06/26 06:30:00;;;;;;;0.70;0.70;;;28.70;99.90;;;;;;5024401;28;20268;-56
2022/06/26 06:32:28;;;;;;;2.15;0.90;;;29.00;99.90;;;;;;5020254;28;20202;-56
2022/06/26 06:34:55;;;;;;;1.75;0.65;;;28.70;99.90;;;;;;5021647;28;20201;-56
2022/06/26 06:37:23;;;;;;;3.45;0.70;;;28.70;99.90;;;;;;5026915;28;20199;-56
2022/06/26 06:39:50;;;;;;;1.10;0.80;;;29.20;99.90;;;;;;5026049;28;20294;-56
2022/06/26 06:42:17;;;;;;;1.40;0.68;;;29.20;99.90;;;;;;5022992;28;20254;-56
2022/06/26 06:44:44;;;;;;;4.03;0.82;;;29.20;99.90;;;;;;5024114;28;20292;-56
2022/06/26 06:47:12;;;;;;;1.38;0.70;;;29.20;99.90;;;;;;5016071;28;20206;-56
2022/06/26 06:49:40;;;;;;;0.60;0.60;;;28.70;99.90;;;;;;5016302;28;20349;-57
2022/06/26 06:52:08;;;;;;;0.60;0.60;;;28.60;99.90;;;;;;5023564;28;20202;-56
2022/06/26 06:54:36;;;;;;;0.65;0.60;;;29.10;99.90;;;;;;5023987;28;20229;-56
2022/06/26 06:57:03;;;;;;;0.55;0.52;;;29.40;99.90;;;;;;5027115;28;20689;-56
2022/06/26 06:59:30;;;;;;;0.65;0.63;;;29.10;99.90;;;;;;5026589;28;20293;-57
2022/06/26 07:01:57;;;;;;;0.60;0.60;;;29.90;99.90;;;;;;5019909;28;20571;-56
2022/06/26 07:04:24;;;;;;;1.65;0.55;;;30.70;99.90;;;;;;5028106;28;20725;-57
2022/06/26 07:06:54;;;;;;;0.60;0.60;;;30.80;99.90;;;;;;5019513;28;20195;-56
2022/06/26 07:09:21;;;;;;;0.70;0.70;;;30.50;99.90;;;;;;5026052;28;20924;-56
2022/06/26 07:11:48;;;;;;;2.88;0.52;;;30.00;99.90;;;;;;5024710;28;20202;-57
2022/06/26 07:14:15;;;;;;;0.65;0.65;;;30.60;99.90;;;;;;5020920;28;20222;-57
2022/06/26 07:16:42;;;;;;;0.77;0.77;;;31.00;99.90;;;;;;5024630;28;20738;-57
2022/06/26 07:19:09;;;;;;;0.68;0.68;;;30.90;99.90;;;;;;5030361;28;20587;-57
2022/06/26 07:21:36;;;;;;;0.70;0.70;;;31.10;99.90;;;;;;5019506;28;20628;-57
2022/06/26 07:24:05;;;;;;;1.42;0.70;;;31.50;99.90;;;;;;5029596;28;20222;-57
2022/06/26 07:26:32;;;;;;;0.70;0.60;;;32.20;99.90;;;;;;5033091;28;20619;-57
2022/06/26 07:28:59;;;;;;;0.50;0.50;;;32.20;99.90;;;;;;5027741;28;20222;-57
2022/06/26 07:31:26;;;;;;;2.28;0.50;;;31.90;99.90;;;;;;5026579;28;20265;-57
2022/06/26 07:36:38;;;;;;;0.60;0.60;;;32.30;99.90;;;;;;5027703;28;20349;-57
2022/06/26 07:39:08;;;;;;;1.02;0.50;;;32.70;99.90;;;;;;5022934;28;20227;-57
2022/06/26 07:41:35;;;;;;;0.73;0.73;;;33.10;99.90;;;;;;5022361;28;20194;-57
2022/06/26 07:44:02;;;;;;;0.60;0.60;;;33.40;99.30;;;;;;5029891;28;20708;-57
2022/06/26 07:46:30;;;;;;;0.60;0.60;;;33.20;99.60;;;;;;5020596;28;20623;-57
2022/06/26 07:48:57;;;;;;;0.65;0.65;;;33.10;99.90;;;;;;5028101;28;20203;-57
2022/06/26 07:51:24;;;;;;;0.65;0.63;;;32.60;99.90;;;;;;5031282;28;20234;-57
2022/06/26 07:53:51;;;;;;;0.88;0.88;;;32.90;99.90;;;;;;5029723;28;20236;-57
2022/06/26 07:56:20;;;;;;;0.65;0.65;;;33.00;99.90;;;;;;5022511;28;20286;-57
2022/06/26 07:58:47;;;;;;;0.68;0.68;;;33.50;99.70;;;;;;5027438;28;20675;-57
2022/06/26 08:01:14;;;;;;;0.60;0.60;;;33.70;99.90;;;;;;5025070;28;21110;-57
2022/06/26 08:03:41;;;;;;;0.60;0.60;;;33.90;99.60;;;;;;5029021;28;20280;-57
2022/06/26 08:06:08;;;;;;;0.75;0.75;;;34.00;99.20;;;;;;5013945;28;20207;-57
2022/06/26 08:08:35;;;;;;;0.50;0.50;;;33.50;97.40;;;;;;5028077;28;20660;-57
2022/06/26 08:11:02;;;;;;;0.60;0.60;;;33.30;97.70;;;;;;5022858;28;20218;-57
2022/06/26 08:13:30;;;;;;;1.65;0.73;;;33.40;99.90;;;;;;5025304;28;20232;-57
2022/06/26 08:15:57;;;;;;;0.50;0.50;;;33.50;98.10;;;;;;5021752;28;20623;-57
2022/06/26 08:18:24;;;;;;;2.13;0.85;;;33.10;99.20;;;;;;5018418;28;20199;-57
2022/06/26 08:20:51;;;;;;;1.15;0.60;;;33.50;97.70;;;;;;5018178;28;20257;-57
2022/06/26 08:23:18;;;;;;;0.50;0.50;;;33.30;99.90;;;;;;5023772;28;20569;-57
2022/06/26 08:25:46;;;;;;;0.60;0.60;;;34.00;98.40;;;;;;5032934;28;20202;-57
2022/06/26 08:28:13;;;;;;;0.65;0.65;;;34.50;97.90;;;;;;5024925;28;20672;-57
2022/06/26 08:30:42;;;;;;;2.25;0.82;;;34.10;98.10;;;;;;5032189;28;20219;-57
2022/06/26 08:33:09;;;;;;;0.95;0.73;;;34.40;98.60;;;;;;5030980;28;20226;-56
2022/06/26 08:35:36;;;;;;;0.70;0.70;;;34.60;95.50;;;;;;5026932;28;20203;-57
2022/06/26 08:38:03;;;;;;;0.70;0.70;;;34.70;96.40;;;;;;5022683;28;20215;-57
2022/06/26 08:40:30;;;;;;;0.60;0.60;;;35.10;95.30;;;;;;5012679;28;20195;-57
2022/06/26 08:42:58;;;;;;;0.98;0.85;;;34.80;95.60;;;;;;5030179;28;20230;-57
2022/06/26 08:45:25;;;;;;;1.98;0.85;;;34.70;96.00;;;;;;5029404;28;20202;-57
2022/06/26 08:47:55;;;;;;;0.50;0.50;;;34.80;98.00;;;;;;5014924;28;20207;-57
2022/06/26 08:50:23;;;;;;;0.60;0.60;;;34.90;94.40;;;;;;5012358;28;20318;-57
2022/06/26 08:52:52;;;;;;;0.77;0.60;;;34.80;94.00;;;;;;5011544;28;20223;-57
2022/06/26 08:55:20;;;;;;;0.63;0.63;;;35.20;93.10;;;;;;5019415;28;20230;-57
2022/06/26 08:57:48;;;;;;;1.85;0.68;;;35.40;92.50;;;;;;5052399;22;20230;-52
2022/06/26 09:00:16;;;;;;;1.08;0.50;;;34.90;94.80;;;;;;5027582;28;20230;-53
2022/06/26 09:02:44;;;;;;;1.33;0.68;;;34.80;92.70;;;;;;5031560;28;20607;-53
2022/06/26 09:05:13;;;;;;;0.50;0.50;;;35.30;93.20;;;;;;5023732;28;20210;-53
2022/06/26 09:07:47;;;;;;;0.60;0.60;;;35.20;94.50;;;;;;5028110;28;20272;-53
2022/06/26 09:10:17;;;;;;;0.55;0.50;;;35.20;92.80;;;;;;5026788;28;20222;-52
2022/06/26 09:12:44;;;;;;;0.73;0.40;;;35.10;92.50;;;;;;5025641;28;20209;-53
2022/06/26 09:15:17;;;;;;;0.40;0.40;;;35.30;91.80;;;;;;5025821;28;20203;-52
2022/06/26 09:17:57;;;;;;;0.80;0.80;;;35.10;93.00;;;;;;5012364;28;20223;-53
2022/06/26 09:20:26;;;;;;;0.85;0.70;;;35.70;93.70;;;;;;5021109;28;20214;-52
2022/06/26 09:22:54;;;;;;;0.50;0.50;;;35.90;93.10;;;;;;5027505;28;20260;-52
2022/06/26 09:25:21;;;;;;;2.60;0.70;;;36.00;93.80;;;;;;5020121;28;20241;-53
2022/06/26 09:27:48;;;;;;;0.60;0.60;;;36.00;91.80;;;;;;5022034;28;20218;-53
2022/06/26 09:30:15;;;;;;;0.63;0.63;;;35.40;92.70;;;;;;5017925;28;20238;-52
2022/06/26 09:32:42;;;;;;;0.60;0.60;;;35.20;92.80;;;;;;5017332;28;20199;-52
2022/06/26 09:35:10;;;;;;;0.60;0.60;;;35.30;90.70;;;;;;5020428;28;20608;-53
2022/06/26 09:37:39;;;;;;;0.50;0.50;;;35.50;90.80;;;;;;5020540;28;20565;-53
2022/06/26 09:40:07;;;;;;;1.65;0.88;;;35.60;92.60;;;;;;5029460;28;20195;-53
2022/06/26 09:42:35;;;;;;;0.85;0.75;;;35.10;91.90;;;;;;5015103;28;20257;-52
2022/06/26 09:45:02;;;;;;;1.05;0.68;;;34.80;92.90;;;;;;5017150;28;20219;-53
2022/06/26 09:47:31;;;;;;;0.80;0.80;;;34.70;94.40;;;;;;5019670;28;20253;-52
2022/06/26 09:50:00;;;;;;;0.52;0.47;;;34.50;93.20;;;;;;5019092;28;20222;-52
2022/06/26 09:52:29;;;;;;;0.52;0.52;;;34.60;93.10;;;;;;5014039;28;20265;-52
2022/06/26 09:54:59;;;;;;;0.57;0.57;;;34.50;93.60;;;;;;5018172;28;20291;-52
2022/06/26 09:57:26;;;;;;;0.60;0.60;;;35.40;93.50;;;;;;5020525;28;20292;-52
2022/06/26 09:59:54;;;;;;;0.50;0.50;;;36.00;91.00;;;;;;5028427;28;20217;-52
2022/06/26 10:07:53;;;;;;;0.60;0.60;;;35.10;91.00;;;;;;5022619;28;20229;-52
2022/06/26 10:10:23;;;;;;;0.95;0.95;;;34.70;93.90;;;;;;5027287;28;20214;-52
2022/06/26 10:12:53;;;;;;;0.50;0.50;;;34.70;92.10;;;;;;5027872;28;20226;-52
2022/06/26 10:15:24;;;;;;;1.85;0.70;;;35.10;91.90;;;;;;5016977;28;20257;-53
2022/06/26 10:18:14;;;;;;;1.35;0.50;;;35.50;92.50;;;;;;5024841;28;20312;-52
2022/06/26 10:20:42;;;;;;;0.47;0.47;;;35.70;93.30;;;;;;5031570;28;20256;-53
2022/06/26 10:23:09;;;;;;;0.50;0.50;;;36.10;91.00;;;;;;5015152;28;20576;-52
2022/06/26 10:25:38;;;;;;;0.60;0.60;;;36.20;90.40;;;;;;5015690;28;20288;-52
2022/06/26 10:28:05;;;;;;;0.73;0.60;;;36.00;91.10;;;;;;5023395;28;20285;-53
2022/06/26 10:30:32;;;;;;;1.45;0.50;;;35.90;92.40;;;;;;5034994;28;20469;-52
2022/06/26 10:33:10;;;;;;;0.65;0.65;;;35.50;94.10;;;;;;5034448;28;20694;-52
2022/06/26 10:35:39;;;;;;;1.13;0.60;;;35.30;94.40;;;;;;5032250;28;20670;-52
2022/06/26 10:38:19;;;;;;;0.57;0.57;;;35.20;92.50;;;;;;5025907;28;20227;-52
2022/06/26 10:43:44;;;;;;;0.95;0.95;;;34.40;94.00;;;;;;5019611;28;20321;-52
2022/06/26 10:46:13;;;;;;;0.50;0.50;;;34.30;93.30;;;;;;5016777;28;20202;-53
2022/06/26 10:48:50;;;;;;;1.20;0.50;;;34.20;94.90;;;;;;5023068;28;20513;-52
2022/06/26 10:51:25;;;;;;;0.50;0.50;;;34.70;93.20;;;;;;5032312;28;20279;-52
2022/06/26 10:53:56;;;;;;;0.90;0.75;;;34.70;93.00;;;;;;5016990;28;20870;-52
2022/06/26 10:56:24;;;;;;;0.40;0.40;;;34.20;96.60;;;;;;5026314;28;20202;-52
2022/06/26 10:59:00;;;;;;;0.70;0.70;;;34.20;96.10;;;;;;5023375;28;20781;-52
2022/06/26 11:01:27;;;;;;;1.85;0.65;;;34.10;97.10;;;;;;5026724;28;20210;-52
2022/06/26 11:03:55;;;;;;;2.47;0.80;;;34.00;93.40;;;;;;5030790;28;20293;-52
2022/06/26 11:06:27;;;;;;;0.43;0.43;;;33.50;94.60;;;;;;5022831;28;20202;-52
2022/06/26 11:08:54;;;;;;;0.65;0.65;;;33.30;96.10;;;;;;5022545;28;20313;-53
2022/06/26 11:11:30;;;;;;;1.17;0.63;;;33.10;94.70;;;;;;5026793;28;20896;-53
2022/06/26 11:13:59;;;;;;;0.65;0.65;;;33.10;94.40;;;;;;5021254;28;20713;-52
2022/06/26 11:16:31;;;;;;;0.88;0.88;;;33.20;95.30;;;;;;5025587;28;20203;-52
2022/06/26 11:18:58;;;;;;;0.50;0.50;;;33.00;94.60;;;;;;5025104;28;20207;-53
2022/06/26 11:21:26;;;;;;;0.60;0.60;;;32.70;94.90;;;;;;5019464;28;20219;-52
2022/06/26 11:23:54;;;;;;;0.88;0.88;;;32.70;95.00;;;;;;5014452;28;20207;-53
2022/06/26 11:26:22;;;;;;;0.40;0.40;;;32.60;95.00;;;;;;5019296;28;20253;-52
2022/06/26 11:28:57;;;;;;;0.70;0.70;;;32.60;95.90;;;;;;5028243;28;20261;-52
2022/06/26 11:31:26;;;;;;;0.70;0.70;;;32.60;95.50;;;;;;5019795;28;20258;-52
2022/06/26 11:33:54;;;;;;;0.73;0.73;;;32.50;97.40;;;;;;5025204;28;20285;-52
2022/06/26 11:36:22;;;;;;;0.82;0.82;;;32.00;95.60;;;;;;5025631;28;20555;-52
2022/06/26 11:38:53;;;;;;;0.60;0.60;;;31.90;97.40;;;;;;5024025;28;20226;-52
2022/06/26 11:41:21;;;;;;;0.65;0.65;;;31.60;96.90;;;;;;5026354;28;20206;-52
2022/06/26 11:43:49;;;;;;;0.65;0.65;;;31.60;99.00;;;;;;5031344;28;20198;-53
2022/06/26 11:46:18;;;;;;;0.70;0.70;;;31.60;97.40;;;;;;5028790;28;20214;-53
2022/06/26 11:48:49;;;;;;;0.60;0.60;;;31.60;96.90;;;;;;5023337;28;20223;-52
2022/06/26 11:51:18;;;;;;;0.88;0.80;;;31.60;98.00;;;;;;5025707;28;20211;-52
2022/06/26 11:53:47;;;;;;;0.60;0.60;;;31.40;99.50;;;;;;5033475;28;20673;-52
2022/06/26 11:56:20;;;;;;;0.60;0.60;;;31.30;98.80;;;;;;5032798;28;20210;-52
2022/06/26 11:58:49;;;;;;;0.90;0.50;;;31.20;98.80;;;;;;5027318;28;20321;-52
2022/06/26 12:01:19;;;;;;;0.90;0.90;;;31.10;97.60;;;;;;5024074;28;20278;-52
2022/06/26 12:03:54;;;;;;;1.38;0.60;;;31.10;97.50;;;;;;5033100;28;20264;-52
2022/06/26 12:06:32;;;;;;;0.82;0.47;;;30.90;97.60;;;;;;5032374;28;20206;-52
2022/06/26 12:09:01;;;;;;;0.50;0.50;;;30.90;98.30;;;;;;5018384;28;20287;-52
2022/06/26 12:11:28;;;;;;;0.70;0.70;;;30.90;98.10;;;;;;5029057;28;20236;-51
2022/06/26 12:13:55;;;;;;;0.50;0.50;;;30.90;98.90;;;;;;5032750;28;20203;-52
2022/06/26 12:16:24;;;;;;;0.60;0.60;;;30.80;98.20;;;;;;5015334;28;20210;-52
2022/06/26 12:18:51;;;;;;;0.70;0.70;;;30.70;98.30;;;;;;5025849;28;20226;-52
2022/06/26 12:21:20;;;;;;;0.80;0.80;;;30.70;99.90;;;;;;5025503;28;20203;-52
2022/06/26 12:23:48;;;;;;;0.68;0.68;;;30.70;99.90;;;;;;5032635;28;20219;-52
2022/06/26 12:26:18;;;;;;;0.65;0.65;;;30.80;99.90;;;;;;5030026;28;20206;-52
2022/06/26 12:28:48;;;;;;;0.60;0.60;;;30.70;99.90;;;;;;5029322;28;20222;-52
2022/06/26 12:31:17;;;;;;;0.50;0.50;;;30.50;99.90;;;;;;5025543;28;20258;-52
2022/06/26 12:33:49;;;;;;;0.65;0.57;;;30.30;99.90;;;;;;5020248;28;20205;-52
2022/06/26 12:36:17;;;;;;;0.68;0.68;;;30.30;99.90;;;;;;5022841;28;20265;-51
2022/06/26 12:38:46;;;;;;;0.90;0.50;;;30.30;99.90;;;;;;5029190;28;20223;-51
2022/06/26 12:41:19;;;;;;;0.70;0.70;;;30.30;99.90;;;;;;5030978;28;20275;-51
2022/06/26 12:43:48;;;;;;;0.80;0.80;;;30.20;99.90;;;;;;5033061;28;20210;-51
2022/06/26 12:46:16;;;;;;;1.00;0.70;;;30.00;99.90;;;;;;5027859;28;20203;-51
2022/06/26 12:48:44;;;;;;;1.10;0.52;;;29.80;99.90;;;;;;5028988;28;20214;-51
2022/06/26 12:51:12;;;;;;;0.60;0.60;;;30.00;99.90;;;;;;5032009;28;20222;-50
2022/06/26 12:53:40;;;;;;;0.70;0.70;;;30.10;99.90;;;;;;5032551;28;20203;-50
2022/06/26 12:56:07;;;;;;;1.27;0.63;;;30.00;99.90;;;;;;5027617;28;20253;-52
2022/06/26 12:58:34;;;;;;;0.50;0.50;;;30.20;99.90;;;;;;5031982;28;20257;-52
2022/06/26 13:01:02;;;;;;;0.70;0.60;;;30.30;99.90;;;;;;5018953;28;20447;-51
2022/06/26 13:03:29;;;;;;;0.50;0.50;;;30.10;99.40;;;;;;5016972;28;20203;-51
2022/06/26 13:05:57;;;;;;;0.47;0.47;;;30.20;99.80;;;;;;5020879;28;20299;-51
2022/06/26 13:08:24;;;;;;;0.40;0.40;;;30.40;99.90;;;;;;5028230;28;20226;-51